Time;durP1;ratioP1;P1;durP2;ratioP2;P2;SDS_P1;SDS_P2;PMS_P1;PMS_P2;Temp;Humidity;BMP_temperature;BMP_pressure;BME280_temperature;BME280_humidity;BME280_pressure;Samples;Min_cycle;Max_cycle;Signal;HPM_P1;HPM_P2
2022/06/18 00:00:29;;;;;;;3.60;2.90;;;18.20;99.90;;;;;;5003282;28;20410;-50
2022/06/18 00:02:56;;;;;;;5.17;3.73;;;18.20;99.90;;;;;;5003198;28;20417;-46
2022/06/18 00:05:24;;;;;;;4.77;4.20;;;18.00;99.90;;;;;;5002468;28;20819;-52
2022/06/18 00:07:54;;;;;;;5.73;3.70;;;17.90;99.90;;;;;;5002484;28;20431;-49
2022/06/18 00:10:26;;;;;;;7.73;3.80;;;18.00;99.90;;;;;;5002724;28;20414;-48
2022/06/18 00:15:58;;;;;;;6.40;4.00;;;18.10;99.90;;;;;;4997184;28;20432;-49
2022/06/18 00:18:25;;;;;;;4.40;4.00;;;18.00;99.90;;;;;;5003132;28;20758;-50
2022/06/18 00:20:54;;;;;;;5.77;5.20;;;18.10;99.90;;;;;;5002616;28;20710;-51
2022/06/18 00:23:21;;;;;;;8.17;4.07;;;17.90;99.90;;;;;;5002788;28;20524;-52
2022/06/18 00:25:51;;;;;;;5.67;4.57;;;17.60;99.90;;;;;;4994717;28;20466;-51
2022/06/18 00:28:25;;;;;;;6.20;4.47;;;17.80;99.90;;;;;;5002692;28;20485;-50
2022/06/18 00:30:54;;;;;;;4.50;4.10;;;17.90;99.90;;;;;;4995272;28;20485;-46
2022/06/18 00:33:22;;;;;;;6.00;4.27;;;17.90;99.90;;;;;;5001716;28;20440;-45
2022/06/18 00:35:56;;;;;;;5.63;3.87;;;17.90;99.90;;;;;;5002171;28;20482;-45
2022/06/18 00:38:29;;;;;;;4.97;4.03;;;17.90;99.90;;;;;;5000978;28;20446;-47
2022/06/18 00:40:58;;;;;;;6.80;4.60;;;17.80;99.90;;;;;;5001759;28;20438;-49
2022/06/18 00:43:43;;;;;;;5.20;4.50;;;17.80;99.90;;;;;;4999413;28;20430;-49
2022/06/18 00:46:19;;;;;;;5.63;4.73;;;17.80;99.90;;;;;;5000839;28;20476;-50
2022/06/18 00:48:55;;;;;;;4.60;4.20;;;17.90;99.90;;;;;;5001341;28;20620;-48
2022/06/18 00:51:31;;;;;;;5.67;4.67;;;18.10;99.90;;;;;;5002061;28;20516;-50
2022/06/18 00:54:24;;;;;;;6.10;4.73;;;18.30;99.90;;;;;;5001268;28;20485;-50
2022/06/18 00:57:16;;;;;;;4.83;4.40;;;18.30;99.90;;;;;;4999459;28;20758;-52
2022/06/18 00:59:53;;;;;;;5.93;4.30;;;18.10;99.90;;;;;;5000601;28;20502;-50
2022/06/18 01:02:25;;;;;;;6.10;3.70;;;18.00;99.90;;;;;;5002104;28;20446;-46
2022/06/18 01:04:52;;;;;;;5.00;4.40;;;18.20;99.90;;;;;;4999000;28;20477;-45
2022/06/18 01:07:35;;;;;;;5.43;4.40;;;18.30;99.90;;;;;;5001743;28;20614;-47
2022/06/18 01:10:10;;;;;;;4.27;3.20;;;18.40;99.90;;;;;;4999024;28;20423;-45
2022/06/18 01:12:37;;;;;;;3.87;3.57;;;18.30;99.90;;;;;;5001643;28;20544;-48
2022/06/18 01:15:08;;;;;;;3.83;3.30;;;18.30;99.90;;;;;;5001556;28;20472;-53
2022/06/18 01:17:38;;;;;;;3.20;2.90;;;18.30;99.90;;;;;;5001844;28;20739;-46
2022/06/18 01:20:10;;;;;;;4.53;4.13;;;18.60;99.90;;;;;;5001806;28;20485;-46
2022/06/18 01:23:37;;;;;;;5.60;4.37;;;18.50;99.90;;;;;;5001579;28;20433;-48
2022/06/18 01:26:06;;;;;;;4.27;3.73;;;18.40;99.90;;;;;;4979427;28;20514;-50
2022/06/18 01:28:33;;;;;;;3.80;3.10;;;18.30;99.90;;;;;;4979094;28;20789;-47
2022/06/18 01:31:01;;;;;;;3.13;2.83;;;18.20;99.90;;;;;;4989832;28;20458;-51
2022/06/18 01:33:30;;;;;;;3.57;3.27;;;18.30;99.90;;;;;;5001565;28;20435;-46
2022/06/18 01:35:58;;;;;;;4.10;3.77;;;18.20;99.90;;;;;;5003439;28;20454;-45
2022/06/18 01:38:25;;;;;;;3.90;3.43;;;18.20;99.90;;;;;;5003067;28;20746;-43
2022/06/18 01:44:08;;;;;;;3.27;3.07;;;18.30;99.90;;;;;;4998089;28;20446;-47
2022/06/18 01:46:38;;;;;;;3.50;2.70;;;18.40;99.90;;;;;;5000777;28;20510;-46
2022/06/18 01:49:10;;;;;;;3.97;3.37;;;18.50;99.90;;;;;;5000061;28;20439;-44
2022/06/18 01:51:41;;;;;;;3.77;2.83;;;18.40;99.90;;;;;;5000820;28;20480;-45
2022/06/18 01:54:21;;;;;;;3.30;3.00;;;18.30;99.90;;;;;;5000491;28;20636;-48
2022/06/18 01:56:55;;;;;;;3.60;3.07;;;18.30;99.90;;;;;;5000845;28;20431;-46
2022/06/18 01:59:27;;;;;;;4.07;3.70;;;18.40;99.90;;;;;;5000559;28;20440;-47
2022/06/18 02:01:56;;;;;;;3.77;3.17;;;18.50;99.90;;;;;;5000705;28;20418;-44
2022/06/18 02:04:28;;;;;;;4.10;2.90;;;18.50;99.90;;;;;;5000537;28;20439;-50
2022/06/18 02:06:55;;;;;;;5.20;3.00;;;18.20;99.90;;;;;;5000026;28;20744;-47
2022/06/18 02:09:44;;;;;;;4.37;3.97;;;18.10;99.90;;;;;;5000752;28;20640;-47
2022/06/18 02:12:20;;;;;;;2.97;2.67;;;18.00;99.90;;;;;;4999765;28;20819;-48
2022/06/18 02:14:52;;;;;;;3.33;2.50;;;18.10;99.90;;;;;;4997996;28;20495;-48
2022/06/18 02:17:21;;;;;;;3.43;2.80;;;18.30;99.90;;;;;;5000321;28;20493;-48
2022/06/18 02:19:57;;;;;;;3.27;2.97;;;18.30;99.90;;;;;;4997572;28;20440;-46
2022/06/18 02:22:33;;;;;;;4.63;3.03;;;18.20;99.90;;;;;;5000824;28;20435;-47
2022/06/18 02:25:00;;;;;;;3.00;2.80;;;18.20;99.90;;;;;;5000407;28;20435;-47
2022/06/18 02:27:28;;;;;;;3.00;2.70;;;18.20;99.90;;;;;;5000530;28;20634;-48
2022/06/18 02:29:55;;;;;;;3.93;3.00;;;18.20;99.90;;;;;;5000245;28;20457;-51
2022/06/18 02:32:45;;;;;;;3.60;2.80;;;18.30;99.90;;;;;;5000242;28;20452;-49
2022/06/18 02:35:14;;;;;;;2.77;2.60;;;18.30;99.90;;;;;;5000356;28;20437;-50
2022/06/18 02:37:42;;;;;;;7.60;3.00;;;18.50;99.90;;;;;;5000393;28;20424;-48
2022/06/18 02:40:35;;;;;;;3.63;2.90;;;18.70;99.90;;;;;;4999256;28;20869;-45
2022/06/18 02:43:03;;;;;;;2.97;2.70;;;18.60;99.90;;;;;;4999799;28;20425;-47
2022/06/18 02:45:31;;;;;;;3.80;2.20;;;18.70;99.90;;;;;;4999785;28;20466;-50
2022/06/18 02:48:00;;;;;;;3.20;2.87;;;18.70;99.90;;;;;;5000633;28;20435;-48
2022/06/18 02:50:31;;;;;;;3.30;2.83;;;18.70;99.90;;;;;;4999894;28;20619;-48
2022/06/18 02:53:02;;;;;;;4.23;2.90;;;18.50;99.90;;;;;;5000145;28;20879;-49
2022/06/18 02:55:42;;;;;;;2.70;2.50;;;18.60;99.90;;;;;;5000187;28;20461;-52
2022/06/18 02:58:18;;;;;;;2.97;2.67;;;18.60;99.90;;;;;;4995529;28;20425;-47
2022/06/18 03:00:51;;;;;;;3.13;2.83;;;18.60;99.90;;;;;;5000597;28;20835;-47
2022/06/18 03:03:19;;;;;;;3.10;2.60;;;18.70;99.90;;;;;;5000876;28;20637;-47
2022/06/18 03:05:46;;;;;;;5.47;2.80;;;18.80;99.90;;;;;;4997577;28;20466;-49
2022/06/18 03:08:14;;;;;;;3.93;2.60;;;18.70;99.90;;;;;;5003080;28;20438;-50
2022/06/18 03:13:28;;;;;;;3.43;3.13;;;18.70;99.90;;;;;;5002207;28;20502;-49
2022/06/18 03:15:56;;;;;;;3.23;2.47;;;18.70;99.90;;;;;;5003987;28;20809;-50
2022/06/18 03:18:30;;;;;;;3.43;2.30;;;18.80;99.90;;;;;;5003876;28;20446;-52
2022/06/18 03:20:57;;;;;;;2.37;2.10;;;18.70;99.90;;;;;;5004933;28;20467;-45
2022/06/18 03:23:26;;;;;;;2.80;2.60;;;18.90;99.90;;;;;;5003900;28;20441;-48
2022/06/18 03:25:53;;;;;;;4.57;2.80;;;19.10;99.90;;;;;;5004041;28;20767;-46
2022/06/18 03:28:23;;;;;;;3.00;2.70;;;19.20;99.90;;;;;;5003642;28;20418;-49
2022/06/18 03:30:51;;;;;;;3.57;3.27;;;19.10;99.90;;;;;;5003878;28;20413;-46
2022/06/18 03:33:18;;;;;;;2.97;2.60;;;19.20;99.90;;;;;;5003953;28;20804;-48
2022/06/18 03:35:48;;;;;;;2.40;2.20;;;19.30;99.90;;;;;;5003404;28;20808;-50
2022/06/18 03:38:21;;;;;;;2.20;2.10;;;19.10;99.90;;;;;;5003851;28;20505;-50
2022/06/18 03:40:51;;;;;;;4.23;3.07;;;19.20;99.90;;;;;;5003629;28;20474;-50
2022/06/18 03:43:24;;;;;;;11.53;3.20;;;19.30;99.90;;;;;;5003755;28;20498;-46
2022/06/18 03:46:00;;;;;;;3.20;2.90;;;19.40;99.90;;;;;;5003635;28;20467;-46
2022/06/18 03:48:44;;;;;;;5.00;2.97;;;19.50;99.90;;;;;;5003491;28;20473;-49
2022/06/18 03:51:12;;;;;;;2.90;2.70;;;19.70;99.90;;;;;;5002984;28;20820;-45
2022/06/18 03:53:40;;;;;;;2.13;2.03;;;19.90;99.90;;;;;;5003103;28;20759;-50
2022/06/18 03:56:11;;;;;;;3.90;3.47;;;20.00;99.90;;;;;;5002713;28;20451;-49
2022/06/18 03:58:39;;;;;;;2.53;2.33;;;20.20;99.90;;;;;;5003057;28;20410;-49
2022/06/18 04:01:08;;;;;;;2.73;2.53;;;20.50;99.90;;;;;;5002746;28;20421;-49
2022/06/18 04:03:35;;;;;;;4.83;2.47;;;20.60;99.90;;;;;;5001703;28;20422;-49
2022/06/18 04:06:02;;;;;;;2.87;2.60;;;20.60;99.90;;;;;;5002505;28;20442;-46
2022/06/18 04:08:30;;;;;;;5.60;2.60;;;20.60;99.90;;;;;;5002879;28;20448;-48
2022/06/18 04:10:58;;;;;;;3.30;3.03;;;20.70;99.90;;;;;;5003106;28;20776;-47
2022/06/18 04:13:28;;;;;;;3.90;2.70;;;20.70;99.90;;;;;;4999680;28;20501;-47
2022/06/18 04:15:56;;;;;;;2.40;2.20;;;20.70;99.90;;;;;;5003019;28;20513;-46
2022/06/18 04:18:23;;;;;;;3.30;3.00;;;20.70;99.90;;;;;;5001555;28;20448;-45
2022/06/18 04:20:53;;;;;;;2.57;2.37;;;20.70;99.90;;;;;;5003134;28;20580;-48
2022/06/18 04:23:20;;;;;;;6.90;2.50;;;20.80;99.90;;;;;;5003224;28;20456;-50
2022/06/18 04:25:48;;;;;;;3.10;2.80;;;20.90;99.90;;;;;;5002698;28;20455;-49
2022/06/18 04:28:17;;;;;;;2.77;2.53;;;21.00;99.90;;;;;;5002343;28;20903;-49
2022/06/18 04:30:46;;;;;;;2.57;2.37;;;21.10;99.90;;;;;;5002482;28;20725;-53
2022/06/18 04:33:14;;;;;;;3.13;2.70;;;21.30;99.90;;;;;;5002074;28;20475;-48
2022/06/18 04:35:54;;;;;;;3.53;2.40;;;21.40;99.90;;;;;;4994362;28;20426;-51
2022/06/18 04:38:21;;;;;;;5.50;2.60;;;21.60;99.90;;;;;;5002682;28;20445;-50
2022/06/18 04:40:49;;;;;;;2.30;2.10;;;21.90;99.90;;;;;;5002278;28;20412;-48
2022/06/18 04:43:25;;;;;;;5.70;2.40;;;21.70;99.90;;;;;;5002022;28;20747;-49
2022/06/18 04:45:56;;;;;;;4.43;2.50;;;21.60;99.90;;;;;;5001831;28;20431;-46
2022/06/18 04:48:23;;;;;;;2.60;2.40;;;21.60;99.90;;;;;;5001078;28;20872;-48
2022/06/18 04:50:51;;;;;;;3.90;3.07;;;21.70;99.90;;;;;;4994874;28;20449;-47
2022/06/18 04:53:18;;;;;;;2.83;2.60;;;21.80;99.90;;;;;;5002194;28;20471;-51
2022/06/18 04:55:45;;;;;;;2.03;1.93;;;21.90;99.90;;;;;;5001834;28;20782;-45
2022/06/18 04:58:12;;;;;;;3.70;3.40;;;22.30;99.90;;;;;;5001460;28;20420;-50
2022/06/18 05:00:40;;;;;;;2.77;2.57;;;22.50;99.90;;;;;;5002354;28;20476;-45
2022/06/18 05:03:17;;;;;;;4.30;2.27;;;22.50;99.90;;;;;;5001866;28;20647;-49
2022/06/18 05:05:45;;;;;;;5.37;3.00;;;22.40;99.90;;;;;;5002028;28;20620;-49
2022/06/18 05:08:13;;;;;;;3.97;3.40;;;22.50;99.90;;;;;;5001341;28;20742;-48
2022/06/18 05:10:40;;;;;;;2.43;2.23;;;22.70;99.90;;;;;;5002045;28;20442;-49
2022/06/18 05:13:08;;;;;;;3.40;3.10;;;22.90;99.90;;;;;;5001406;28;20457;-45
2022/06/18 05:15:36;;;;;;;4.00;2.80;;;23.10;99.90;;;;;;5001787;28;20462;-46
2022/06/18 05:18:03;;;;;;;10.03;5.03;;;23.40;99.90;;;;;;5001393;28;20443;-50
2022/06/18 05:20:30;;;;;;;6.70;5.43;;;23.50;99.90;;;;;;5001661;28;20414;-53
2022/06/18 05:22:58;;;;;;;3.20;2.90;;;23.60;99.90;;;;;;5001603;28;20431;-47
2022/06/18 05:25:25;;;;;;;5.90;3.93;;;23.90;99.90;;;;;;5001101;28;20459;-47
2022/06/18 05:27:53;;;;;;;2.90;2.53;;;23.90;99.90;;;;;;5001672;28;20414;-45
2022/06/18 05:30:25;;;;;;;2.30;2.13;;;23.80;99.90;;;;;;5001287;28;20439;-49
2022/06/18 05:32:53;;;;;;;3.73;2.97;;;24.10;99.90;;;;;;5000632;28;20457;-48
2022/06/18 05:35:20;;;;;;;3.60;3.30;;;24.30;99.90;;;;;;5001191;28;20823;-45
2022/06/18 05:37:47;;;;;;;2.50;1.97;;;24.50;99.90;;;;;;5001147;28;20550;-46
2022/06/18 05:40:14;;;;;;;2.53;2.33;;;24.80;99.90;;;;;;5001586;28;20420;-45
2022/06/18 05:42:41;;;;;;;2.40;2.27;;;24.80;99.90;;;;;;5001380;28;20426;-50
2022/06/18 05:45:09;;;;;;;2.20;2.00;;;24.60;99.90;;;;;;5001165;28;20806;-50
2022/06/18 05:47:37;;;;;;;3.37;2.50;;;24.60;99.90;;;;;;5001246;28;20414;-51
2022/06/18 05:50:07;;;;;;;4.90;2.00;;;24.70;99.90;;;;;;5000871;28;20411;-50
2022/06/18 05:52:35;;;;;;;2.23;1.90;;;24.40;99.90;;;;;;4998186;28;20483;-51
2022/06/18 05:55:04;;;;;;;3.80;2.20;;;24.20;99.90;;;;;;5001020;28;20504;-47
2022/06/18 05:57:31;;;;;;;2.03;1.93;;;24.10;99.90;;;;;;5000996;28;20434;-48
2022/06/18 06:00:06;;;;;;;2.57;2.37;;;24.00;99.90;;;;;;5001096;28;20422;-50
2022/06/18 06:02:33;;;;;;;3.93;2.20;;;23.90;99.90;;;;;;5001014;28;20435;-50
2022/06/18 06:05:01;;;;;;;2.07;1.93;;;23.90;99.90;;;;;;5000373;28;20461;-47
2022/06/18 06:07:28;;;;;;;2.07;1.97;;;24.10;99.90;;;;;;5001374;28;20634;-52
2022/06/18 06:12:42;;;;;;;3.07;2.87;;;24.60;99.90;;;;;;5000957;28;20582;-51
2022/06/18 06:15:10;;;;;;;2.87;2.40;;;25.10;99.90;;;;;;4996131;28;20496;-50
2022/06/18 06:17:37;;;;;;;7.10;3.03;;;25.50;99.90;;;;;;5000666;28;20443;-48
2022/06/18 06:20:11;;;;;;;2.17;1.77;;;25.70;99.90;;;;;;5000892;28;20414;-47
2022/06/18 06:22:39;;;;;;;2.20;2.10;;;25.80;99.90;;;;;;5001852;28;20410;-47
2022/06/18 06:25:06;;;;;;;3.27;3.00;;;25.80;99.90;;;;;;5002660;28;20456;-46
2022/06/18 06:27:33;;;;;;;2.00;1.90;;;25.80;99.90;;;;;;5002105;28;20646;-45
2022/06/18 06:30:01;;;;;;;2.00;1.90;;;26.00;99.90;;;;;;5000386;28;20603;-46
2022/06/18 06:32:33;;;;;;;1.77;1.67;;;26.20;99.90;;;;;;5000489;28;20482;-47
2022/06/18 06:35:00;;;;;;;1.90;1.80;;;26.50;99.90;;;;;;5000445;28;20426;-47
2022/06/18 06:37:28;;;;;;;2.17;2.07;;;26.80;99.90;;;;;;5000791;28;20612;-48
2022/06/18 06:39:56;;;;;;;2.57;1.70;;;26.80;99.90;;;;;;5000786;28;20440;-51
2022/06/18 06:42:25;;;;;;;2.13;1.93;;;26.90;99.90;;;;;;5000736;28;20479;-48
2022/06/18 06:44:52;;;;;;;2.50;2.30;;;27.10;99.90;;;;;;5000896;28;20458;-49
2022/06/18 06:47:20;;;;;;;4.77;2.03;;;27.30;99.90;;;;;;5001094;28;20446;-48
2022/06/18 06:49:47;;;;;;;5.30;2.27;;;27.90;99.90;;;;;;4992720;28;20431;-48
2022/06/18 06:52:15;;;;;;;1.90;1.80;;;28.90;99.90;;;;;;5000806;28;20441;-52
2022/06/18 06:54:42;;;;;;;1.70;1.60;;;30.60;99.90;;;;;;5000622;28;20452;-52
2022/06/18 06:57:21;;;;;;;3.20;2.30;;;30.80;98.30;;;;;;5000505;28;20445;-46
2022/06/18 06:59:49;;;;;;;3.43;2.40;;;31.70;96.50;;;;;;4993284;28;20677;-49
2022/06/18 07:02:25;;;;;;;2.60;2.40;;;32.10;95.00;;;;;;4997708;28;20451;-49
2022/06/18 07:04:55;;;;;;;2.83;1.93;;;32.30;93.80;;;;;;4997086;28;20462;-50
2022/06/18 07:07:23;;;;;;;2.13;1.70;;;33.60;91.00;;;;;;4998425;28;20435;-45
2022/06/18 07:09:50;;;;;;;2.47;2.30;;;35.10;84.70;;;;;;5001146;28;20789;-49
2022/06/18 07:12:17;;;;;;;1.60;1.50;;;36.10;77.10;;;;;;4987427;28;20467;-48
2022/06/18 07:14:44;;;;;;;1.93;1.73;;;36.80;73.00;;;;;;4983513;28;20455;-46
2022/06/18 07:17:17;;;;;;;2.40;1.90;;;38.30;63.90;;;;;;4983508;28;20521;-45
2022/06/18 07:19:45;;;;;;;1.53;1.43;;;38.30;61.20;;;;;;4993285;28;20463;-48
2022/06/18 07:22:13;;;;;;;2.23;1.30;;;39.70;57.50;;;;;;4999630;28;20450;-49
2022/06/18 07:24:41;;;;;;;1.70;1.60;;;40.80;54.20;;;;;;4999542;28;20518;-50
2022/06/18 07:27:08;;;;;;;1.73;1.23;;;41.90;52.10;;;;;;4996262;28;20880;-53
2022/06/18 07:29:35;;;;;;;2.50;1.73;;;42.90;48.70;;;;;;5000137;28;20754;-46
2022/06/18 07:32:07;;;;;;;3.23;1.80;;;42.90;47.70;;;;;;4999458;28;20558;-50
2022/06/18 07:34:34;;;;;;;2.00;1.90;;;42.00;47.50;;;;;;5000127;28;20510;-48
2022/06/18 07:37:02;;;;;;;1.40;1.23;;;41.10;47.80;;;;;;4999079;28;20702;-48
2022/06/18 07:39:29;;;;;;;2.50;1.20;;;40.30;48.50;;;;;;4999937;28;20482;-50
2022/06/18 07:41:56;;;;;;;1.60;1.50;;;39.60;49.40;;;;;;4999610;28;20680;-49
2022/06/18 07:44:25;;;;;;;2.33;1.53;;;39.10;50.10;;;;;;4996878;28;20650;-50
2022/06/18 07:46:57;;;;;;;4.43;1.80;;;40.40;48.50;;;;;;5000589;28;20443;-47
2022/06/18 07:49:25;;;;;;;2.10;1.90;;;42.10;46.90;;;;;;5003392;28;20742;-50
2022/06/18 07:51:52;;;;;;;2.07;1.87;;;41.60;47.00;;;;;;5003430;28;20443;-52
2022/06/18 07:54:19;;;;;;;1.60;1.50;;;41.80;45.80;;;;;;5002410;28;20828;-49
2022/06/18 07:56:47;;;;;;;6.73;1.53;;;41.60;45.90;;;;;;5003116;28;20757;-49
2022/06/18 07:59:16;;;;;;;3.87;1.33;;;41.70;46.00;;;;;;5003717;28;20451;-45
2022/06/18 08:01:43;;;;;;;1.87;1.67;;;42.30;45.50;;;;;;5003887;28;20549;-52
2022/06/18 08:04:11;;;;;;;3.30;1.43;;;43.20;44.70;;;;;;5002292;28;20476;-51
2022/06/18 08:06:38;;;;;;;1.83;1.73;;;43.90;43.40;;;;;;4996976;28;20467;-47
2022/06/18 08:09:05;;;;;;;2.03;1.93;;;44.40;42.60;;;;;;5002906;28;20439;-49
2022/06/18 08:11:33;;;;;;;3.97;1.77;;;44.90;41.90;;;;;;5003169;28;20481;-45
2022/06/18 08:14:00;;;;;;;1.50;1.40;;;45.30;41.30;;;;;;5002635;28;20493;-53
2022/06/18 08:16:27;;;;;;;1.77;1.67;;;44.90;41.30;;;;;;5002304;28;20462;-52
2022/06/18 08:18:55;;;;;;;2.00;1.90;;;44.90;40.70;;;;;;5003128;28;20494;-50
2022/06/18 08:21:27;;;;;;;1.50;1.40;;;44.40;41.20;;;;;;5002774;28;20482;-52
2022/06/18 08:24:04;;;;;;;1.70;1.60;;;44.20;41.00;;;;;;5002915;28;20442;-50
2022/06/18 08:26:32;;;;;;;1.30;1.30;;;43.70;40.80;;;;;;5002398;28;20462;-52
2022/06/18 08:29:02;;;;;;;2.03;1.67;;;44.20;40.70;;;;;;5001464;28;20439;-52
2022/06/18 08:31:29;;;;;;;1.70;1.60;;;45.70;40.20;;;;;;5002509;28;20424;-52
2022/06/18 08:33:57;;;;;;;2.33;2.00;;;46.40;38.60;;;;;;5002234;28;20887;-49
2022/06/18 08:36:25;;;;;;;1.57;1.47;;;45.40;38.50;;;;;;5002374;28;20451;-51
2022/06/18 08:38:54;;;;;;;2.53;2.03;;;45.00;38.10;;;;;;5002077;28;20502;-49
2022/06/18 08:41:52;;;;;;;1.50;1.40;;;44.70;38.10;;;;;;5002363;28;20436;-53
2022/06/18 08:44:43;;;;;;;2.03;1.60;;;45.60;37.80;;;;;;5001082;28;20440;-53
2022/06/18 08:47:20;;;;;;;1.93;1.83;;;46.30;36.30;;;;;;4998956;28;20439;-52
2022/06/18 08:50:02;;;;;;;1.50;1.40;;;45.80;36.70;;;;;;4995042;28;20451;-49
2022/06/18 08:52:41;;;;;;;1.30;1.20;;;44.60;37.80;;;;;;5002661;28;20435;-53
2022/06/18 08:55:28;;;;;;;1.40;1.30;;;43.40;38.40;;;;;;4999653;28;20451;-47
2022/06/18 08:58:28;;;;;;;2.50;1.20;;;41.70;38.60;;;;;;5002067;28;20434;-48
2022/06/18 09:01:22;;;;;;;1.03;1.03;;;42.00;38.50;;;;;;4997391;28;20443;-51
2022/06/18 09:04:35;;;;;;;2.50;1.20;;;42.30;38.00;;;;;;5002252;28;20495;-47
2022/06/18 09:07:30;;;;;;;1.50;1.40;;;43.30;37.90;;;;;;4972007;28;20448;-49
2022/06/18 09:10:13;;;;;;;1.77;1.67;;;43.70;37.50;;;;;;4972808;28;20472;-52
2022/06/18 09:12:50;;;;;;;1.60;1.50;;;44.40;37.10;;;;;;4992962;28;20439;-49
2022/06/18 09:15:37;;;;;;;2.30;1.40;;;45.20;36.60;;;;;;4997809;28;20459;-50
2022/06/18 09:18:15;;;;;;;2.60;1.50;;;45.00;36.20;;;;;;4998085;28;20466;-53
2022/06/18 09:21:08;;;;;;;1.43;1.33;;;45.30;36.30;;;;;;5001549;28;20475;-52
2022/06/18 09:24:07;;;;;;;1.20;1.20;;;45.90;35.40;;;;;;5001490;28;20447;-51
2022/06/18 09:26:41;;;;;;;1.80;1.70;;;45.50;35.90;;;;;;4989138;28;20475;-52
2022/06/18 09:29:23;;;;;;;2.10;1.90;;;45.20;36.10;;;;;;5001611;28;20467;-50
2022/06/18 09:31:57;;;;;;;1.63;1.33;;;44.20;36.50;;;;;;4999428;28;20438;-51
2022/06/18 09:34:36;;;;;;;1.73;1.50;;;43.60;36.40;;;;;;5001282;28;20654;-49
2022/06/18 09:37:17;;;;;;;2.50;1.40;;;42.50;38.20;;;;;;5000785;28;20476;-50
2022/06/18 09:39:50;;;;;;;2.00;1.80;;;40.70;40.20;;;;;;5001035;28;20759;-52
2022/06/18 09:42:40;;;;;;;1.30;1.20;;;39.10;41.10;;;;;;5000703;28;20431;-51
2022/06/18 09:45:16;;;;;;;1.30;1.20;;;36.90;43.00;;;;;;4995368;28;20579;-53
2022/06/18 09:47:46;;;;;;;1.40;1.30;;;35.40;44.50;;;;;;5001080;28;20534;-47
2022/06/18 09:50:17;;;;;;;1.23;1.10;;;34.40;46.40;;;;;;5000638;28;20635;-48
2022/06/18 09:52:49;;;;;;;1.60;1.50;;;33.90;47.40;;;;;;5000196;28;20447;-52
2022/06/18 09:55:39;;;;;;;2.30;1.30;;;33.50;48.30;;;;;;5000739;28;20527;-53
2022/06/18 09:58:23;;;;;;;1.50;1.40;;;33.20;49.90;;;;;;5000731;28;20511;-53
2022/06/18 10:00:57;;;;;;;4.13;1.60;;;33.10;49.10;;;;;;5001080;28;20490;-51
2022/06/18 10:09:37;;;;;;;1.53;1.43;;;32.70;49.90;;;;;;5000191;28;20459;-51
2022/06/18 10:12:25;;;;;;;1.17;1.17;;;32.60;50.10;;;;;;5000634;28;20474;-47
2022/06/18 10:14:57;;;;;;;1.33;1.20;;;32.50;50.60;;;;;;4996952;28;20486;-50
2022/06/18 10:17:33;;;;;;;1.50;1.40;;;32.30;50.60;;;;;;4999759;28;20443;-52
2022/06/18 10:20:01;;;;;;;1.83;1.40;;;32.10;50.30;;;;;;4999981;28;20436;-51
2022/06/18 10:22:50;;;;;;;4.40;1.50;;;32.10;50.70;;;;;;5000544;28;20674;-53
2022/06/18 10:25:45;;;;;;;1.90;1.70;;;32.00;50.30;;;;;;4999831;28;20463;-53
2022/06/18 10:28:17;;;;;;;1.53;1.40;;;32.10;50.20;;;;;;4995614;28;20478;-52
2022/06/18 10:30:53;;;;;;;1.57;1.47;;;32.10;50.90;;;;;;5000073;28;20431;-47
2022/06/18 10:33:43;;;;;;;1.70;1.60;;;32.10;50.20;;;;;;5000215;28;20515;-47
2022/06/18 10:36:15;;;;;;;2.23;2.07;;;31.90;50.90;;;;;;4994784;28;20486;-48
2022/06/18 10:39:03;;;;;;;2.63;2.30;;;31.90;51.50;;;;;;5000589;28;20486;-50
2022/06/18 10:41:40;;;;;;;1.70;1.60;;;31.90;51.80;;;;;;5000585;28;20481;-52
2022/06/18 10:44:13;;;;;;;2.10;1.50;;;31.90;51.60;;;;;;4995561;28;20435;-54
2022/06/18 10:46:41;;;;;;;1.50;1.40;;;31.80;52.00;;;;;;5000028;28;20454;-51
2022/06/18 10:49:09;;;;;;;4.73;1.70;;;31.90;52.20;;;;;;4995390;28;20510;-49
2022/06/18 10:51:47;;;;;;;3.73;3.00;;;32.00;52.50;;;;;;5000174;28;20432;-46
2022/06/18 10:54:15;;;;;;;1.67;1.47;;;32.10;51.80;;;;;;5000083;28;20467;-50
2022/06/18 10:56:49;;;;;;;1.40;1.30;;;31.90;51.60;;;;;;5000392;28;20435;-51
2022/06/18 10:59:30;;;;;;;2.20;1.70;;;31.80;51.00;;;;;;5000223;28;20466;-51
2022/06/18 11:02:16;;;;;;;1.37;1.27;;;31.70;50.90;;;;;;5001062;28;20419;-50
2022/06/18 11:04:58;;;;;;;1.50;1.40;;;31.70;51.20;;;;;;4999297;28;20487;-48
2022/06/18 11:07:28;;;;;;;2.13;1.40;;;31.80;51.40;;;;;;5000034;28;20658;-47
2022/06/18 11:10:19;;;;;;;1.13;1.03;;;31.80;51.50;;;;;;4999881;28;20456;-50
2022/06/18 11:12:53;;;;;;;1.50;1.40;;;31.70;50.80;;;;;;4994886;28;20486;-50
2022/06/18 11:16:01;;;;;;;1.30;1.20;;;31.60;51.40;;;;;;4999960;28;20880;-49
2022/06/18 11:18:29;;;;;;;1.90;1.80;;;31.60;51.80;;;;;;4999083;28;20683;-52
2022/06/18 11:21:33;;;;;;;5.97;5.43;;;31.70;51.60;;;;;;4999996;28;20439;-49
2022/06/18 11:24:13;;;;;;;1.90;1.70;;;31.70;51.10;;;;;;4997730;28;20447;-50
2022/06/18 11:26:50;;;;;;;1.30;1.20;;;31.60;50.50;;;;;;5003479;28;20436;-52
2022/06/18 11:29:45;;;;;;;1.50;1.40;;;31.50;51.50;;;;;;5003194;28;20452;-50
2022/06/18 11:32:22;;;;;;;1.97;1.47;;;31.50;51.50;;;;;;4999645;28;20718;-53
2022/06/18 11:35:08;;;;;;;1.47;1.37;;;31.70;51.20;;;;;;4997590;28;20513;-50
2022/06/18 11:37:35;;;;;;;2.70;1.63;;;31.80;51.90;;;;;;5018989;28;20439;-48
2022/06/18 11:40:19;;;;;;;1.60;1.50;;;31.80;51.50;;;;;;5003093;28;20474;-47
2022/06/18 11:43:05;;;;;;;1.50;1.37;;;31.90;51.90;;;;;;4995748;28;20438;-52
2022/06/18 11:45:34;;;;;;;1.63;1.53;;;31.90;52.10;;;;;;5002932;28;20485;-53
2022/06/18 11:48:16;;;;;;;1.23;1.13;;;31.80;52.50;;;;;;5003247;28;20447;-50
2022/06/18 11:51:24;;;;;;;1.77;1.53;;;31.80;51.90;;;;;;5002297;28;20435;-53
2022/06/18 11:53:56;;;;;;;2.20;1.40;;;31.60;53.00;;;;;;4995922;28;20578;-52
2022/06/18 11:56:27;;;;;;;1.70;1.27;;;31.70;52.80;;;;;;5002904;28;20452;-50
2022/06/18 11:59:28;;;;;;;1.33;1.20;;;31.80;52.70;;;;;;5003250;28;20441;-49
2022/06/18 12:02:04;;;;;;;1.30;1.20;;;31.80;52.60;;;;;;4995875;28;20467;-51
2022/06/18 12:04:35;;;;;;;1.30;1.20;;;31.70;52.60;;;;;;5000408;28;20478;-50
2022/06/18 12:07:20;;;;;;;1.40;1.30;;;31.70;52.90;;;;;;5002191;28;20489;-51
2022/06/18 12:09:47;;;;;;;1.40;1.30;;;31.70;52.70;;;;;;5001142;28;20440;-48
2022/06/18 12:12:27;;;;;;;1.50;1.40;;;31.80;52.50;;;;;;5002417;28;20453;-51
2022/06/18 12:15:23;;;;;;;1.23;1.13;;;31.80;52.50;;;;;;5000244;28;20857;-55
2022/06/18 12:18:19;;;;;;;3.87;1.77;;;31.60;52.70;;;;;;5002293;28;20432;-49
2022/06/18 12:21:19;;;;;;;1.57;1.43;;;31.70;53.50;;;;;;5002298;28;20489;-52
2022/06/18 12:24:03;;;;;;;1.43;1.33;;;31.70;53.20;;;;;;4995331;28;20599;-47
2022/06/18 12:26:40;;;;;;;1.50;1.40;;;31.60;53.00;;;;;;5002287;28;20703;-49
2022/06/18 12:29:07;;;;;;;1.40;1.30;;;31.50;53.20;;;;;;5001673;28;20432;-46
2022/06/18 12:31:47;;;;;;;1.50;1.30;;;31.60;53.40;;;;;;5002103;28;20439;-51
2022/06/18 12:34:31;;;;;;;1.10;1.10;;;31.50;53.00;;;;;;5001144;28;20533;-50
2022/06/18 12:37:40;;;;;;;1.73;1.60;;;31.50;53.70;;;;;;4999111;28;20763;-50
2022/06/18 12:40:29;;;;;;;1.50;1.40;;;31.60;53.60;;;;;;5001751;28;20662;-52
2022/06/18 12:43:19;;;;;;;1.60;1.50;;;31.70;53.80;;;;;;4995092;28;20490;-50
2022/06/18 12:46:03;;;;;;;1.23;1.13;;;31.70;54.10;;;;;;4994175;28;20459;-48
2022/06/18 12:48:52;;;;;;;1.17;1.10;;;31.80;53.60;;;;;;5001736;28;20458;-47
2022/06/18 12:51:58;;;;;;;2.23;1.53;;;31.90;53.30;;;;;;5002638;28;20414;-48
2022/06/18 12:54:44;;;;;;;1.20;1.10;;;31.90;53.40;;;;;;4999650;28;20475;-49
2022/06/18 12:57:33;;;;;;;1.63;1.53;;;31.80;53.60;;;;;;5001975;28;20667;-51
2022/06/18 13:00:09;;;;;;;1.50;1.40;;;31.90;53.70;;;;;;4995491;28;20458;-49
2022/06/18 13:03:18;;;;;;;1.37;1.27;;;32.00;53.10;;;;;;5002088;28;20603;-50
2022/06/18 13:06:00;;;;;;;3.73;1.80;;;31.90;53.40;;;;;;5002212;28;20494;-52
2022/06/18 13:09:03;;;;;;;1.40;1.27;;;31.80;53.70;;;;;;4999427;28;20451;-51
2022/06/18 13:11:42;;;;;;;4.50;1.87;;;31.90;53.90;;;;;;5001494;28;20494;-52
2022/06/18 13:14:21;;;;;;;1.33;1.23;;;31.90;53.60;;;;;;5001819;28;20545;-48
2022/06/18 13:17:05;;;;;;;2.10;1.40;;;31.80;53.60;;;;;;4994104;28;20805;-53
2022/06/18 13:19:35;;;;;;;2.07;1.83;;;31.90;54.30;;;;;;5001948;28;20428;-52
2022/06/18 13:22:04;;;;;;;3.87;2.40;;;31.90;53.70;;;;;;5001508;28;20498;-50
2022/06/18 13:30:36;;;;;;;2.87;1.50;;;31.80;54.10;;;;;;5001317;28;20548;-53
2022/06/18 13:33:30;;;;;;;3.53;1.70;;;31.80;54.60;;;;;;5001338;28;20494;-49
2022/06/18 13:36:29;;;;;;;1.87;1.67;;;31.80;54.60;;;;;;4994745;28;20654;-47
2022/06/18 13:39:03;;;;;;;1.33;1.23;;;31.80;54.20;;;;;;4945191;28;20439;-49
2022/06/18 13:41:40;;;;;;;2.20;1.53;;;31.90;54.10;;;;;;5001577;28;20482;-46
2022/06/18 13:44:10;;;;;;;2.80;1.87;;;31.90;54.00;;;;;;4995409;28;20459;-48
2022/06/18 13:47:14;;;;;;;1.60;1.50;;;31.80;54.60;;;;;;5001326;28;20447;-47
2022/06/18 13:49:53;;;;;;;1.80;1.70;;;31.80;54.70;;;;;;5000205;28;20471;-47